createdAt,value
2023-05-12T00:02:20.648Z,78.21
2023-05-12T00:06:20.283Z,76.31
2023-05-12T00:10:15.526Z,76.53
2023-05-12T00:14:15.079Z,75.96
2023-05-12T00:18:11.004Z,75.62
2023-05-12T00:22:10.337Z,75.93
2023-05-12T00:26:05.354Z,75.97
2023-05-12T00:29:50.474Z,76.01
2023-05-12T00:33:35.536Z,75.92
2023-05-12T00:37:22.413Z,74.11
2023-05-12T00:41:07.517Z,72.27
2023-05-12T00:44:52.752Z,72.20
2023-05-12T00:48:44.027Z,71.70
2023-05-12T00:52:35.669Z,71.72
2023-05-12T00:56:31.783Z,72.71
2023-05-12T01:00:31.122Z,72.77
2023-05-12T01:04:26.470Z,73.43
2023-05-12T01:08:26.412Z,74.16
2023-05-12T01:12:21.732Z,74.64
2023-05-12T01:16:19.200Z,74.00
2023-05-12T01:20:19.647Z,73.89
2023-05-12T01:24:15.629Z,74.40
2023-05-12T01:28:00.571Z,75.02
2023-05-12T01:31:46.220Z,75.60
2023-05-12T01:35:41.707Z,76.90
2023-05-12T01:39:40.997Z,77.07
2023-05-12T01:43:38.624Z,78.77
2023-05-12T01:47:35.869Z,79.62
2023-05-12T01:51:38.237Z,80.33
2023-05-12T01:55:38.058Z,79.19
2023-05-12T01:59:34.038Z,78.61
2023-05-12T02:03:34.213Z,80.71
2023-05-12T02:07:29.832Z,82.06
2023-05-12T02:11:27.475Z,80.85
2023-05-12T02:15:20.525Z,81.48
2023-05-12T02:19:24.650Z,82.82
2023-05-12T02:23:19.803Z,81.35
2023-05-12T02:27:18.996Z,81.44
2023-05-12T02:31:14.876Z,81.42
2023-05-12T02:35:14.678Z,82.32
2023-05-12T02:39:08.363Z,81.82
2023-05-12T02:43:05.922Z,82.05
2023-05-12T02:47:06.362Z,82.66
2023-05-12T02:51:05.948Z,85.60
2023-05-12T02:55:01.781Z,87.39
2023-05-12T02:59:00.903Z,88.43
2023-05-12T03:02:56.985Z,88.93
2023-05-12T03:06:55.768Z,90.24
2023-05-12T03:10:57.689Z,89.90
2023-05-12T03:14:56.898Z,90.50
2023-05-12T03:18:58.375Z,91.51
2023-05-12T03:22:56.744Z,93.63
2023-05-12T03:26:58.249Z,95.61
2023-05-12T03:30:57.017Z,96.60
2023-05-12T03:34:58.241Z,97.32
2023-05-12T03:38:56.710Z,96.09
2023-05-12T03:42:58.444Z,95.67
2023-05-12T03:46:56.888Z,90.25
2023-05-12T03:50:58.437Z,82.59
2023-05-12T03:54:56.862Z,75.64
2023-05-12T03:58:58.333Z,70.93
2023-05-12T04:02:56.962Z,66.95
2023-05-12T04:06:57.721Z,64.81
2023-05-12T04:10:55.750Z,61.65
2023-05-12T04:14:57.360Z,58.11
2023-05-12T04:18:55.936Z,56.65
2023-05-12T04:22:57.336Z,55.09
2023-05-12T04:26:52.237Z,53.29
2023-05-12T04:30:49.503Z,50.92
2023-05-12T04:34:49.880Z,49.83
2023-05-12T04:38:51.310Z,48.72
2023-05-12T04:42:50.049Z,48.40
2023-05-12T04:46:51.813Z,48.37
2023-05-12T04:50:49.966Z,47.64
2023-05-12T04:54:49.809Z,47.57
2023-05-12T04:58:43.080Z,47.30
2023-05-12T05:02:40.233Z,46.47
2023-05-12T05:06:37.781Z,46.64
2023-05-12T05:10:37.660Z,47.31
2023-05-12T05:14:29.173Z,46.78
2023-05-12T05:18:29.152Z,46.50
2023-05-12T05:22:26.063Z,46.22
2023-05-12T05:26:20.975Z,46.68
2023-05-12T05:30:18.313Z,45.71
2023-05-12T05:34:18.757Z,43.65
2023-05-12T05:38:18.324Z,42.99
2023-05-12T05:42:14.160Z,43.01
2023-05-12T05:46:13.848Z,42.18
2023-05-12T05:50:10.235Z,42.29
2023-05-12T05:54:09.722Z,41.35
2023-05-12T05:58:02.957Z,40.32
2023-05-12T06:02:06.313Z,40.17
2023-05-12T06:06:02.285Z,39.27
2023-05-12T06:10:02.012Z,38.43
2023-05-12T06:13:57.480Z,39.32
2023-05-12T06:17:59.074Z,38.73
2023-05-12T06:21:54.900Z,38.59
2023-05-12T06:25:54.658Z,37.60
2023-05-12T06:29:50.180Z,37.65
2023-05-12T06:33:49.765Z,36.77
2023-05-12T06:37:45.195Z,36.10
2023-05-12T06:41:46.657Z,34.02
2023-05-12T06:45:49.556Z,33.03
2023-05-12T06:49:49.036Z,33.94
2023-05-12T06:53:49.781Z,33.56
2023-05-12T06:57:49.076Z,31.79
2023-05-12T07:01:44.471Z,31.38
2023-05-12T07:05:48.658Z,32.17
2023-05-12T07:09:48.532Z,32.18
2023-05-12T07:13:46.606Z,31.64
2023-05-12T07:17:37.514Z,32.46
2023-05-12T07:21:22.685Z,33.19
2023-05-12T07:25:07.785Z,32.38
2023-05-12T07:28:53.103Z,32.30
2023-05-12T07:32:38.346Z,31.56
2023-05-12T07:36:29.814Z,31.64
2023-05-12T07:40:21.241Z,30.18
2023-05-12T07:44:24.438Z,29.85
2023-05-12T07:48:24.760Z,29.65
2023-05-12T07:52:22.580Z,29.32
2023-05-12T07:56:21.681Z,29.26
2023-05-12T08:00:19.498Z,28.34
2023-05-12T08:04:19.903Z,28.26
2023-05-12T08:08:17.745Z,27.12
2023-05-12T08:12:02.914Z,27.42
2023-05-12T08:15:47.870Z,27.73
2023-05-12T08:19:32.993Z,26.91
2023-05-12T08:23:18.185Z,25.37
2023-05-12T08:27:03.133Z,24.17
2023-05-12T08:30:48.490Z,22.85
2023-05-12T08:34:33.574Z,22.09
2023-05-12T08:38:18.674Z,22.40
2023-05-12T08:42:10.458Z,23.79
2023-05-12T08:46:07.705Z,24.27
2023-05-12T08:50:08.066Z,24.21
2023-05-12T08:54:06.030Z,23.79
2023-05-12T08:58:06.730Z,23.40
2023-05-12T09:02:05.590Z,22.29
2023-05-12T09:06:05.790Z,21.71
2023-05-12T09:10:03.427Z,21.46
2023-05-12T09:13:56.644Z,21.24
2023-05-12T09:17:41.859Z,22.49
2023-05-12T09:21:26.822Z,22.39
2023-05-12T09:25:13.429Z,21.93
2023-05-12T09:29:05.559Z,22.66
2023-05-12T09:33:05.055Z,22.60
2023-05-12T09:37:04.884Z,21.90
2023-05-12T09:41:02.484Z,22.60
2023-05-12T09:45:02.042Z,22.09
2023-05-12T09:48:59.748Z,21.81
2023-05-12T09:53:03.011Z,21.48
2023-05-12T09:57:00.639Z,22.28
2023-05-12T10:01:21.043Z,23.56
2023-05-12T10:05:18.923Z,23.03
2023-05-12T10:09:18.932Z,22.05
2023-05-12T10:13:16.794Z,21.42
2023-05-12T10:17:16.816Z,21.36
2023-05-12T10:21:15.186Z,21.50
2023-05-12T10:25:15.137Z,21.50
2023-05-12T10:29:12.578Z,21.61
2023-05-12T10:33:11.904Z,22.39
2023-05-12T10:37:09.729Z,22.40
2023-05-12T10:41:09.902Z,21.89
2023-05-12T10:45:07.603Z,20.33
2023-05-12T10:49:07.950Z,20.65
2023-05-12T10:53:06.027Z,20.43
2023-05-12T10:57:05.634Z,20.89
2023-05-12T11:01:06.443Z,20.56
2023-05-12T11:05:12.930Z,20.42
2023-05-12T11:09:15.820Z,21.07
2023-05-12T11:13:12.539Z,20.46
2023-05-12T11:17:13.902Z,20.16
2023-05-12T11:21:09.651Z,19.94
2023-05-12T11:25:11.160Z,20.26
2023-05-12T11:29:09.485Z,19.92
2023-05-12T11:33:09.001Z,18.94
2023-05-12T11:37:07.612Z,18.80
2023-05-12T11:41:07.086Z,19.02
2023-05-12T11:45:05.676Z,18.94
2023-05-12T11:49:05.203Z,19.19
2023-05-12T11:53:03.762Z,18.76
2023-05-12T11:57:02.935Z,17.79
2023-05-12T12:01:01.541Z,17.41
2023-05-12T12:05:01.215Z,17.09
2023-05-12T12:08:59.616Z,17.46
2023-05-12T12:13:04.092Z,17.47
2023-05-12T12:17:01.713Z,18.21
2023-05-12T12:21:03.058Z,18.71
2023-05-12T12:24:59.091Z,18.28
2023-05-12T12:29:01.265Z,17.85
2023-05-12T12:32:52.875Z,18.07
2023-05-12T12:36:52.134Z,19.08
2023-05-12T12:40:47.800Z,18.81
2023-05-12T12:44:46.803Z,18.47
2023-05-12T12:48:42.761Z,18.47
2023-05-12T12:52:42.074Z,17.33
2023-05-12T12:56:37.704Z,17.70
2023-05-12T13:00:30.976Z,17.52
2023-05-12T13:04:25.845Z,16.55
2023-05-12T13:08:24.826Z,15.87
2023-05-12T13:12:17.657Z,15.82
2023-05-12T13:16:17.337Z,14.95
2023-05-12T13:20:08.767Z,14.90
2023-05-12T13:24:08.649Z,15.70
2023-05-12T13:27:59.839Z,14.69
2023-05-12T13:31:59.049Z,14.32
2023-05-12T13:35:58.729Z,14.27
2023-05-12T13:39:55.724Z,14.35
2023-05-12T13:43:50.909Z,14.63
2023-05-12T13:47:44.209Z,14.36
2023-05-12T13:51:40.146Z,14.23
2023-05-12T13:55:33.672Z,13.99
2023-05-12T13:59:29.258Z,14.00
2023-05-12T14:03:28.590Z,13.71
2023-05-12T14:07:23.795Z,13.97
2023-05-12T14:11:22.844Z,14.54
2023-05-12T14:19:20.418Z,14.67
2023-05-12T14:23:16.335Z,14.02
2023-05-12T14:27:15.679Z,14.09
2023-05-12T14:31:11.149Z,13.85
2023-05-12T14:35:10.886Z,14.84
2023-05-12T14:39:06.432Z,15.52
2023-05-12T14:43:05.679Z,16.62
2023-05-12T14:47:00.910Z,16.77
2023-05-12T14:51:00.804Z,17.24
2023-05-12T14:54:56.323Z,17.00
2023-05-12T14:58:55.831Z,16.66
2023-05-12T15:02:51.251Z,16.93
2023-05-12T15:06:50.611Z,17.24
2023-05-12T15:10:45.876Z,17.50
2023-05-12T15:14:45.540Z,17.88
2023-05-12T15:18:41.039Z,18.05
2023-05-12T15:22:40.152Z,18.85
2023-05-12T15:26:37.477Z,19.68
2023-05-12T15:30:38.542Z,19.48
2023-05-12T15:34:33.785Z,19.44
2023-05-12T15:38:33.280Z,19.04
2023-05-12T15:42:33.371Z,19.15
2023-05-12T15:46:32.835Z,19.35
2023-05-12T15:50:32.338Z,19.80
2023-05-12T15:54:31.881Z,19.71
2023-05-12T15:58:27.302Z,19.50
2023-05-12T16:02:26.895Z,19.09
2023-05-12T16:06:22.111Z,19.35
2023-05-12T16:10:21.449Z,19.81
2023-05-12T16:14:19.203Z,20.20
2023-05-12T16:18:14.513Z,20.96
2023-05-12T16:22:14.001Z,20.94
2023-05-12T16:26:09.338Z,21.05
2023-05-12T16:30:08.819Z,21.18
2023-05-12T16:34:04.271Z,22.47
2023-05-12T16:38:03.276Z,23.29
2023-05-12T16:41:58.093Z,24.17
2023-05-12T16:45:57.655Z,25.08
2023-05-12T16:49:53.557Z,25.76
2023-05-12T16:53:52.847Z,26.68
2023-05-12T16:57:48.481Z,26.74
2023-05-12T17:01:47.793Z,26.65
2023-05-12T17:05:43.507Z,27.03
2023-05-12T17:09:42.824Z,27.58
2023-05-12T17:13:38.326Z,28.64
2023-05-12T17:17:38.106Z,28.88
2023-05-12T17:21:33.665Z,29.60
2023-05-12T17:25:32.804Z,30.91
2023-05-12T17:29:28.734Z,32.14
2023-05-12T17:33:27.683Z,32.20
2023-05-12T17:37:23.584Z,32.20
2023-05-12T17:41:22.752Z,32.70
2023-05-12T17:45:18.639Z,33.16
2023-05-12T17:49:17.881Z,34.10
2023-05-12T17:53:13.219Z,34.93
2023-05-12T17:57:12.424Z,35.33
2023-05-12T18:01:07.674Z,35.78
2023-05-12T18:05:06.946Z,37.05
2023-05-12T18:09:02.440Z,38.23
2023-05-12T18:13:01.548Z,38.62
2023-05-12T18:16:57.531Z,39.54
2023-05-12T18:20:57.002Z,39.82
2023-05-12T18:24:52.696Z,39.23
2023-05-12T18:28:51.934Z,39.32
2023-05-12T18:32:47.488Z,39.79
2023-05-12T18:36:46.950Z,39.86
2023-05-12T18:40:42.318Z,40.44
2023-05-12T18:44:41.582Z,41.58
2023-05-12T18:48:37.505Z,43.00
2023-05-12T18:52:36.327Z,44.32
2023-05-12T18:56:31.798Z,45.80
2023-05-12T19:00:31.116Z,46.32
2023-05-12T19:04:26.450Z,47.46
2023-05-12T19:08:24.432Z,47.07
2023-05-12T19:12:26.375Z,46.08
2023-05-12T19:16:21.704Z,45.33
2023-05-12T19:20:21.326Z,46.11
2023-05-12T19:24:16.693Z,46.48
2023-05-12T19:28:16.212Z,46.90
2023-05-12T19:32:01.197Z,47.15
2023-05-12T19:35:46.265Z,47.74
2023-05-12T19:39:31.374Z,48.74
2023-05-12T19:43:16.245Z,50.13
2023-05-12T19:47:01.406Z,50.77
2023-05-12T19:50:46.480Z,51.15
2023-05-12T19:54:39.427Z,51.81
2023-05-12T19:58:38.820Z,52.48
2023-05-12T20:02:34.652Z,53.92
2023-05-12T20:06:34.262Z,54.89
2023-05-12T20:10:29.833Z,56.40
2023-05-12T20:14:29.280Z,57.21
2023-05-12T20:18:24.907Z,55.79
2023-05-12T20:22:24.343Z,57.36
2023-05-12T20:26:19.465Z,58.43
2023-05-12T20:30:16.517Z,61.37
2023-05-12T20:34:01.553Z,67.49
2023-05-12T20:37:46.859Z,69.28
2023-05-12T20:41:31.924Z,69.93
2023-05-12T20:45:17.061Z,72.16
2023-05-12T20:49:08.578Z,70.86
2023-05-12T20:53:07.769Z,71.83
2023-05-12T20:57:02.598Z,71.48
2023-05-12T21:01:01.695Z,72.68
2023-05-12T21:04:56.983Z,74.95
2023-05-12T21:08:56.366Z,75.32
2023-05-12T21:12:52.078Z,79.57
2023-05-12T21:16:37.215Z,82.53
2023-05-12T21:20:22.273Z,82.26
2023-05-12T21:24:22.196Z,82.05
2023-05-12T21:28:17.642Z,83.25
2023-05-12T21:32:16.892Z,81.68
2023-05-12T21:36:12.681Z,81.79
2023-05-12T21:40:12.267Z,80.03
2023-05-12T21:44:09.176Z,79.86
2023-05-12T21:48:09.650Z,78.25
2023-05-12T21:52:04.970Z,79.88
2023-05-12T21:56:04.579Z,82.85
2023-05-12T21:59:59.866Z,83.87
2023-05-12T22:03:59.557Z,85.16
2023-05-12T22:07:55.026Z,83.36
2023-05-12T22:11:54.525Z,80.68
2023-05-12T22:15:50.149Z,81.62
2023-05-12T22:19:50.065Z,77.94
2023-05-12T22:23:45.745Z,79.56
2023-05-12T22:27:44.827Z,82.10
2023-05-12T22:31:40.125Z,84.21
2023-05-12T22:35:39.738Z,85.48
2023-05-12T22:39:34.789Z,84.91
2023-05-12T22:43:34.003Z,85.92
2023-05-12T22:47:30.029Z,85.64
2023-05-12T22:51:29.404Z,86.11
2023-05-12T22:55:25.222Z,86.61
2023-05-12T22:59:24.408Z,87.29
2023-05-12T23:03:19.790Z,89.34
2023-05-12T23:07:18.783Z,90.42
2023-05-12T23:11:14.028Z,91.02
2023-05-12T23:15:13.573Z,90.92
2023-05-12T23:19:08.962Z,91.30
2023-05-12T23:23:08.617Z,93.15
2023-05-12T23:27:03.979Z,95.70
2023-05-12T23:31:02.864Z,97.98
2023-05-12T23:34:58.120Z,99.07
2023-05-12T23:38:57.862Z,99.84
2023-05-12T23:42:53.364Z,100.00
2023-05-12T23:46:52.359Z,100.00
2023-05-12T23:50:47.870Z,100.00
2023-05-12T23:54:47.160Z,99.93
2023-05-12T23:58:42.877Z,100.00
